sensor_id;sensor_type;location;lat;lon;timestamp;pressure;altitude;pressure_sealevel;temperature;humidity
28630;BME280;15817;42.130;24.762;2023-02-14T00:01:33;101318.50;;;4.85;62.22
28630;BME280;15817;42.130;24.762;2023-02-14T00:04:05;101324.75;;;4.87;61.88
28630;BME280;15817;42.130;24.762;2023-02-14T00:06:31;101313.22;;;4.83;61.82
28630;BME280;15817;42.130;24.762;2023-02-14T00:09:17;101316.75;;;4.84;61.73
28630;BME280;15817;42.130;24.762;2023-02-14T00:11:43;101307.19;;;4.87;61.35
28630;BME280;15817;42.130;24.762;2023-02-14T00:14:13;101308.84;;;4.84;61.56
28630;BME280;15817;42.130;24.762;2023-02-14T00:16:57;101324.94;;;4.91;61.31
28630;BME280;15817;42.130;24.762;2023-02-14T00:19:23;101309.75;;;4.84;61.38
28630;BME280;15817;42.130;24.762;2023-02-14T00:21:49;101319.38;;;4.84;61.04
28630;BME280;15817;42.130;24.762;2023-02-14T00:24:20;101325.28;;;4.78;61.26
28630;BME280;15817;42.130;24.762;2023-02-14T00:26:49;101327.09;;;4.79;60.80
28630;BME280;15817;42.130;24.762;2023-02-14T00:29:18;101320.91;;;4.79;60.95
28630;BME280;15817;42.130;24.762;2023-02-14T00:31:44;101321.06;;;4.82;60.74
28630;BME280;15817;42.130;24.762;2023-02-14T00:34:13;101321.63;;;4.74;60.79
28630;BME280;15817;42.130;24.762;2023-02-14T00:36:40;101304.88;;;4.72;60.46
28630;BME280;15817;42.130;24.762;2023-02-14T00:39:08;101323.56;;;4.79;60.91
28630;BME280;15817;42.130;24.762;2023-02-14T00:41:50;101312.13;;;4.78;60.35
28630;BME280;15817;42.130;24.762;2023-02-14T00:44:19;101314.88;;;4.81;60.13
28630;BME280;15817;42.130;24.762;2023-02-14T00:46:47;101311.34;;;4.81;59.82
28630;BME280;15817;42.130;24.762;2023-02-14T00:49:17;101300.75;;;4.79;59.74
28630;BME280;15817;42.130;24.762;2023-02-14T00:51:43;101322.78;;;4.81;59.56
28630;BME280;15817;42.130;24.762;2023-02-14T00:54:11;101320.09;;;4.80;59.99
28630;BME280;15817;42.130;24.762;2023-02-14T00:56:37;101316.41;;;4.76;59.33
28630;BME280;15817;42.130;24.762;2023-02-14T00:59:03;101317.31;;;4.77;59.54
28630;BME280;15817;42.130;24.762;2023-02-14T01:01:28;101327.22;;;4.82;59.54
28630;BME280;15817;42.130;24.762;2023-02-14T01:03:57;101314.56;;;4.73;59.33
28630;BME280;15817;42.130;24.762;2023-02-14T01:06:24;101321.00;;;4.80;59.51
28630;BME280;15817;42.130;24.762;2023-02-14T01:08:50;101319.88;;;4.75;59.59
28630;BME280;15817;42.130;24.762;2023-02-14T01:11:19;101319.13;;;4.78;59.52
28630;BME280;15817;42.130;24.762;2023-02-14T01:13:48;101311.91;;;4.73;59.55
28630;BME280;15817;42.130;24.762;2023-02-14T01:16:18;101312.94;;;4.77;59.36
28630;BME280;15817;42.130;24.762;2023-02-14T01:18:54;101302.09;;;4.69;59.16
28630;BME280;15817;42.130;24.762;2023-02-14T01:21:26;101291.44;;;4.66;59.18
28630;BME280;15817;42.130;24.762;2023-02-14T01:24:00;101285.19;;;4.64;59.14
28630;BME280;15817;42.130;24.762;2023-02-14T01:26:27;101286.88;;;4.62;59.18
28630;BME280;15817;42.130;24.762;2023-02-14T01:28:54;101287.00;;;4.65;58.96
28630;BME280;15817;42.130;24.762;2023-02-14T01:31:23;101282.25;;;4.57;59.23
28630;BME280;15817;42.130;24.762;2023-02-14T01:33:50;101288.44;;;4.57;59.10
28630;BME280;15817;42.130;24.762;2023-02-14T01:36:31;101282.31;;;4.58;59.35
28630;BME280;15817;42.130;24.762;2023-02-14T01:39:00;101285.88;;;4.59;59.45
28630;BME280;15817;42.130;24.762;2023-02-14T01:41:28;101293.00;;;4.61;59.29
28630;BME280;15817;42.130;24.762;2023-02-14T01:44:02;101297.81;;;4.71;59.58
28630;BME280;15817;42.130;24.762;2023-02-14T01:46:34;101282.50;;;4.63;59.73
28630;BME280;15817;42.130;24.762;2023-02-14T01:49:16;101283.47;;;4.65;59.81
28630;BME280;15817;42.130;24.762;2023-02-14T01:51:53;101292.28;;;4.65;59.61
28630;BME280;15817;42.130;24.762;2023-02-14T01:54:23;101290.66;;;4.69;59.73
28630;BME280;15817;42.130;24.762;2023-02-14T01:56:57;101288.88;;;4.68;59.55
28630;BME280;15817;42.130;24.762;2023-02-14T01:59:27;101274.84;;;4.69;59.43
28630;BME280;15817;42.130;24.762;2023-02-14T02:01:56;101278.56;;;4.74;59.40
28630;BME280;15817;42.130;24.762;2023-02-14T02:04:29;101273.19;;;4.71;59.49
28630;BME280;15817;42.130;24.762;2023-02-14T02:07:02;101260.06;;;4.72;59.85
28630;BME280;15817;42.130;24.762;2023-02-14T02:09:50;101253.91;;;4.72;59.65
28630;BME280;15817;42.130;24.762;2023-02-14T02:12:18;101256.53;;;4.72;59.51
28630;BME280;15817;42.130;24.762;2023-02-14T02:14:47;101261.06;;;4.76;59.52
28630;BME280;15817;42.130;24.762;2023-02-14T02:20:38;101251.44;;;4.77;58.69
28630;BME280;15817;42.130;24.762;2023-02-14T02:32:12;101252.31;;;4.77;59.36
28630;BME280;15817;42.130;24.762;2023-02-14T02:48:49;101243.16;;;4.67;59.15
28630;BME280;15817;42.130;24.762;2023-02-14T02:51:26;101242.41;;;4.70;59.23
28630;BME280;15817;42.130;24.762;2023-02-14T02:54:28;101236.88;;;4.64;59.28
28630;BME280;15817;42.130;24.762;2023-02-14T02:57:00;101252.88;;;4.68;59.40
28630;BME280;15817;42.130;24.762;2023-02-14T02:59:31;101240.41;;;4.64;59.33
28630;BME280;15817;42.130;24.762;2023-02-14T03:02:02;101245.88;;;4.69;59.64
28630;BME280;15817;42.130;24.762;2023-02-14T03:04:32;101235.19;;;4.66;59.53
28630;BME280;15817;42.130;24.762;2023-02-14T03:07:53;101227.28;;;4.66;59.29
28630;BME280;15817;42.130;24.762;2023-02-14T03:10:25;101223.75;;;4.65;59.37
28630;BME280;15817;42.130;24.762;2023-02-14T03:13:50;101222.78;;;4.63;59.13
28630;BME280;15817;42.130;24.762;2023-02-14T03:16:38;101209.53;;;4.60;59.24
28630;BME280;15817;42.130;24.762;2023-02-14T03:19:11;101228.06;;;4.63;59.44
28630;BME280;15817;42.130;24.762;2023-02-14T03:21:53;101225.31;;;4.60;59.25
28630;BME280;15817;42.130;24.762;2023-02-14T03:24:43;101219.09;;;4.58;59.44
28630;BME280;15817;42.130;24.762;2023-02-14T03:35:30;101194.13;;;4.49;59.46
28630;BME280;15817;42.130;24.762;2023-02-14T03:38:12;101188.88;;;4.50;59.64
28630;BME280;15817;42.130;24.762;2023-02-14T03:40:50;101199.50;;;4.52;60.18
28630;BME280;15817;42.130;24.762;2023-02-14T03:43:30;101200.31;;;4.51;60.06
28630;BME280;15817;42.130;24.762;2023-02-14T03:46:21;101208.34;;;4.54;60.02
28630;BME280;15817;42.130;24.762;2023-02-14T03:48:51;101191.44;;;4.47;59.68
28630;BME280;15817;42.130;24.762;2023-02-14T03:51:21;101195.94;;;4.51;59.53
28630;BME280;15817;42.130;24.762;2023-02-14T03:53:52;101180.00;;;4.47;59.89
28630;BME280;15817;42.130;24.762;2023-02-14T03:58:57;101210.88;;;4.51;59.45
28630;BME280;15817;42.130;24.762;2023-02-14T04:01:42;101221.78;;;4.60;59.55
28630;BME280;15817;42.130;24.762;2023-02-14T04:04:11;101211.00;;;4.54;59.35
28630;BME280;15817;42.130;24.762;2023-02-14T04:06:39;101228.78;;;4.59;59.28
28630;BME280;15817;42.130;24.762;2023-02-14T04:09:05;101212.66;;;4.52;59.29
28630;BME280;15817;42.130;24.762;2023-02-14T04:11:32;101210.28;;;4.58;59.22
28630;BME280;15817;42.130;24.762;2023-02-14T04:14:02;101190.81;;;4.54;59.38
28630;BME280;15817;42.130;24.762;2023-02-14T04:16:28;101187.16;;;4.51;59.49
28630;BME280;15817;42.130;24.762;2023-02-14T04:18:54;101189.00;;;4.53;59.26
28630;BME280;15817;42.130;24.762;2023-02-14T04:21:38;101176.53;;;4.48;58.98
28630;BME280;15817;42.130;24.762;2023-02-14T04:24:15;101188.25;;;4.56;59.82
28630;BME280;15817;42.130;24.762;2023-02-14T04:26:43;101179.38;;;4.54;59.48
28630;BME280;15817;42.130;24.762;2023-02-14T04:29:21;101171.13;;;4.45;59.83
28630;BME280;15817;42.130;24.762;2023-02-14T04:32:34;101171.06;;;4.43;59.50
28630;BME280;15817;42.130;24.762;2023-02-14T04:35:50;101170.16;;;4.43;59.40
28630;BME280;15817;42.130;24.762;2023-02-14T04:38:16;101165.78;;;4.43;59.33
28630;BME280;15817;42.130;24.762;2023-02-14T04:40:42;101158.06;;;4.48;59.32
28630;BME280;15817;42.130;24.762;2023-02-14T04:43:08;101154.47;;;4.46;59.29
28630;BME280;15817;42.130;24.762;2023-02-14T04:45:34;101163.41;;;4.49;59.25
28630;BME280;15817;42.130;24.762;2023-02-14T04:47:59;101156.41;;;4.50;59.30
28630;BME280;15817;42.130;24.762;2023-02-14T04:50:26;101150.25;;;4.49;58.77
28630;BME280;15817;42.130;24.762;2023-02-14T04:52:54;101144.78;;;4.45;58.67
28630;BME280;15817;42.130;24.762;2023-02-14T04:55:20;101150.19;;;4.48;58.60
28630;BME280;15817;42.130;24.762;2023-02-14T04:57:53;101153.88;;;4.53;58.53
28630;BME280;15817;42.130;24.762;2023-02-14T05:00:19;101140.53;;;4.48;58.11
28630;BME280;15817;42.130;24.762;2023-02-14T05:02:51;101143.19;;;4.48;57.99
28630;BME280;15817;42.130;24.762;2023-02-14T05:05:17;101142.34;;;4.49;58.03
28630;BME280;15817;42.130;24.762;2023-02-14T05:07:58;101128.00;;;4.43;58.38
28630;BME280;15817;42.130;24.762;2023-02-14T05:10:48;101128.19;;;4.47;58.65
28630;BME280;15817;42.130;24.762;2023-02-14T05:13:14;101126.09;;;4.38;58.61
28630;BME280;15817;42.130;24.762;2023-02-14T05:19:33;101122.38;;;4.33;58.95
28630;BME280;15817;42.130;24.762;2023-02-14T05:22:32;101127.66;;;4.33;59.22
28630;BME280;15817;42.130;24.762;2023-02-14T05:25:50;101123.28;;;4.34;59.31
28630;BME280;15817;42.130;24.762;2023-02-14T05:28:19;101139.88;;;4.31;59.77
28630;BME280;15817;42.130;24.762;2023-02-14T05:30:45;101153.28;;;4.38;59.94
28630;BME280;15817;42.130;24.762;2023-02-14T05:33:11;101153.09;;;4.33;59.79
28630;BME280;15817;42.130;24.762;2023-02-14T05:35:40;101136.25;;;4.29;60.09
28630;BME280;15817;42.130;24.762;2023-02-14T05:38:06;101148.03;;;4.38;60.39
28630;BME280;15817;42.130;24.762;2023-02-14T05:43:56;101135.50;;;4.32;60.72
28630;BME280;15817;42.130;24.762;2023-02-14T05:49:12;101124.00;;;4.30;60.88
28630;BME280;15817;42.130;24.762;2023-02-14T05:51:38;101134.78;;;4.36;61.13
28630;BME280;15817;42.130;24.762;2023-02-14T05:54:08;101120.72;;;4.35;60.77
28630;BME280;15817;42.130;24.762;2023-02-14T05:56:34;101111.19;;;4.39;61.07
28630;BME280;15817;42.130;24.762;2023-02-14T05:59:00;101111.19;;;4.39;60.52
28630;BME280;15817;42.130;24.762;2023-02-14T06:01:55;101110.59;;;4.46;60.91
28630;BME280;15817;42.130;24.762;2023-02-14T06:04:23;101117.59;;;4.46;60.69
28630;BME280;15817;42.130;24.762;2023-02-14T06:06:49;101112.47;;;4.49;60.25
28630;BME280;15817;42.130;24.762;2023-02-14T06:09:17;101106.16;;;4.45;60.18
28630;BME280;15817;42.130;24.762;2023-02-14T06:11:44;101105.34;;;4.46;60.17
28630;BME280;15817;42.130;24.762;2023-02-14T06:14:10;101117.94;;;4.55;59.81
28630;BME280;15817;42.130;24.762;2023-02-14T06:16:56;101128.75;;;4.61;60.05
28630;BME280;15817;42.130;24.762;2023-02-14T06:19:25;101108.31;;;4.55;59.56
28630;BME280;15817;42.130;24.762;2023-02-14T06:22:14;101113.03;;;4.64;59.43
28630;BME280;15817;42.130;24.762;2023-02-14T06:24:40;101120.03;;;4.63;59.60
28630;BME280;15817;42.130;24.762;2023-02-14T06:27:10;101128.31;;;4.72;59.35
28630;BME280;15817;42.130;24.762;2023-02-14T06:29:36;101111.47;;;4.69;59.14
28630;BME280;15817;42.130;24.762;2023-02-14T06:32:08;101102.81;;;4.73;59.38
28630;BME280;15817;42.130;24.762;2023-02-14T06:34:34;101085.25;;;4.72;59.32
28630;BME280;15817;42.130;24.762;2023-02-14T06:37:03;101099.34;;;4.74;59.23
28630;BME280;15817;42.130;24.762;2023-02-14T06:39:29;101101.31;;;4.80;59.42
28630;BME280;15817;42.130;24.762;2023-02-14T06:41:55;101105.06;;;4.86;59.21
28630;BME280;15817;42.130;24.762;2023-02-14T06:44:24;101101.59;;;4.87;59.32
28630;BME280;15817;42.130;24.762;2023-02-14T06:46:50;101112.44;;;4.95;59.28
28630;BME280;15817;42.130;24.762;2023-02-14T06:49:16;101104.41;;;4.92;58.87
28630;BME280;15817;42.130;24.762;2023-02-14T06:51:42;101124.88;;;4.99;59.03
28630;BME280;15817;42.130;24.762;2023-02-14T06:54:08;101113.50;;;5.00;59.19
28630;BME280;15817;42.130;24.762;2023-02-14T06:56:41;101116.25;;;5.03;59.33
28630;BME280;15817;42.130;24.762;2023-02-14T06:59:10;101120.81;;;5.07;59.16
28630;BME280;15817;42.130;24.762;2023-02-14T07:01:40;101118.38;;;5.13;58.97
28630;BME280;15817;42.130;24.762;2023-02-14T07:04:06;101111.22;;;5.10;59.42
28630;BME280;15817;42.130;24.762;2023-02-14T07:06:56;101121.28;;;5.21;59.78
28630;BME280;15817;42.130;24.762;2023-02-14T07:09:27;101110.56;;;5.16;59.28
28630;BME280;15817;42.130;24.762;2023-02-14T07:11:53;101112.47;;;5.20;59.59
28630;BME280;15817;42.130;24.762;2023-02-14T07:14:29;101120.47;;;5.23;59.70
28630;BME280;15817;42.130;24.762;2023-02-14T07:17:03;101121.56;;;5.28;59.71
28630;BME280;15817;42.130;24.762;2023-02-14T07:19:32;101124.41;;;5.34;58.91
28630;BME280;15817;42.130;24.762;2023-02-14T07:22:03;101116.47;;;5.34;58.97
28630;BME280;15817;42.130;24.762;2023-02-14T07:24:35;101109.47;;;5.35;58.54
28630;BME280;15817;42.130;24.762;2023-02-14T07:27:12;101119.34;;;5.40;58.63
28630;BME280;15817;42.130;24.762;2023-02-14T07:29:40;101114.97;;;5.41;58.52
28630;BME280;15817;42.130;24.762;2023-02-14T07:32:06;101108.88;;;5.43;58.91
28630;BME280;15817;42.130;24.762;2023-02-14T07:34:32;101101.91;;;5.45;59.14
28630;BME280;15817;42.130;24.762;2023-02-14T07:36:59;101110.00;;;5.50;59.11
28630;BME280;15817;42.130;24.762;2023-02-14T07:39:28;101087.22;;;5.52;59.26
28630;BME280;15817;42.130;24.762;2023-02-14T07:41:54;101095.53;;;5.64;59.60
28630;BME280;15817;42.130;24.762;2023-02-14T07:44:22;101083.19;;;5.63;59.66
28630;BME280;15817;42.130;24.762;2023-02-14T07:46:48;101101.97;;;5.72;59.74
28630;BME280;15817;42.130;24.762;2023-02-14T07:49:17;101093.03;;;5.69;59.55
28630;BME280;15817;42.130;24.762;2023-02-14T07:51:42;101098.47;;;5.73;59.53
28630;BME280;15817;42.130;24.762;2023-02-14T07:54:08;101089.66;;;5.73;58.98
28630;BME280;15817;42.130;24.762;2023-02-14T07:56:36;101085.34;;;5.75;59.07
28630;BME280;15817;42.130;24.762;2023-02-14T07:59:02;101091.75;;;5.83;58.95
28630;BME280;15817;42.130;24.762;2023-02-14T08:01:31;101096.31;;;5.87;58.86
28630;BME280;15817;42.130;24.762;2023-02-14T08:04:02;101089.38;;;5.91;58.87
28630;BME280;15817;42.130;24.762;2023-02-14T08:06:29;101085.00;;;5.91;58.75
28630;BME280;15817;42.130;24.762;2023-02-14T08:08:57;101091.28;;;5.95;58.79
28630;BME280;15817;42.130;24.762;2023-02-14T08:11:26;101095.97;;;6.03;58.53
28630;BME280;15817;42.130;24.762;2023-02-14T08:14:16;101093.38;;;6.05;58.43
28630;BME280;15817;42.130;24.762;2023-02-14T08:16:44;101105.22;;;6.17;58.56
28630;BME280;15817;42.130;24.762;2023-02-14T08:19:28;101108.81;;;6.20;58.29
28630;BME280;15817;42.130;24.762;2023-02-14T08:21:59;101106.47;;;6.29;57.93
28630;BME280;15817;42.130;24.762;2023-02-14T08:24:53;101119.00;;;6.36;57.66
28630;BME280;15817;42.130;24.762;2023-02-14T08:27:20;101123.75;;;6.47;57.98
28630;BME280;15817;42.130;24.762;2023-02-14T08:29:45;101120.44;;;6.53;57.73
28630;BME280;15817;42.130;24.762;2023-02-14T08:32:11;101128.69;;;6.64;57.94
28630;BME280;15817;42.130;24.762;2023-02-14T08:34:37;101128.78;;;6.67;57.67
28630;BME280;15817;42.130;24.762;2023-02-14T08:37:06;101121.06;;;6.74;57.57
28630;BME280;15817;42.130;24.762;2023-02-14T08:39:34;101122.13;;;6.81;56.98
28630;BME280;15817;42.130;24.762;2023-02-14T08:42:16;101130.47;;;6.95;56.58
28630;BME280;15817;42.130;24.762;2023-02-14T08:44:45;101142.34;;;7.09;57.00
28630;BME280;15817;42.130;24.762;2023-02-14T08:47:11;101136.38;;;7.16;56.62
28630;BME280;15817;42.130;24.762;2023-02-14T08:49:37;101124.22;;;7.22;56.35
28630;BME280;15817;42.130;24.762;2023-02-14T08:52:03;101106.69;;;7.26;55.75
28630;BME280;15817;42.130;24.762;2023-02-14T08:54:34;101112.31;;;7.38;55.88
28630;BME280;15817;42.130;24.762;2023-02-14T08:57:00;101111.56;;;7.44;55.76
28630;BME280;15817;42.130;24.762;2023-02-14T08:59:28;101105.69;;;7.55;55.50
28630;BME280;15817;42.130;24.762;2023-02-14T09:01:54;101103.19;;;7.60;54.85
28630;BME280;15817;42.130;24.762;2023-02-14T09:04:19;101112.28;;;7.71;54.61
28630;BME280;15817;42.130;24.762;2023-02-14T09:06:45;101108.03;;;7.78;54.00
28630;BME280;15817;42.130;24.762;2023-02-14T09:09:11;101086.75;;;7.75;54.18
28630;BME280;15817;42.130;24.762;2023-02-14T09:11:39;101090.56;;;7.86;54.20
28630;BME280;15817;42.130;24.762;2023-02-14T09:14:08;101087.25;;;7.93;53.83
28630;BME280;15817;42.130;24.762;2023-02-14T09:16:34;101068.72;;;7.94;53.42
28630;BME280;15817;42.130;24.762;2023-02-14T09:19:09;101078.72;;;8.06;53.34
28630;BME280;15817;42.130;24.762;2023-02-14T09:21:35;101070.00;;;8.12;53.58
28630;BME280;15817;42.130;24.762;2023-02-14T09:24:06;101062.22;;;8.18;53.29
28630;BME280;15817;42.130;24.762;2023-02-14T09:26:31;101076.66;;;8.30;53.44
28630;BME280;15817;42.130;24.762;2023-02-14T09:28:57;101073.13;;;8.31;52.83
28630;BME280;15817;42.130;24.762;2023-02-14T09:31:24;101065.19;;;8.31;52.79
28630;BME280;15817;42.130;24.762;2023-02-14T09:33:52;101074.38;;;8.47;52.05
28630;BME280;15817;42.130;24.762;2023-02-14T09:36:18;101067.41;;;8.51;51.67
28630;BME280;15817;42.130;24.762;2023-02-14T09:38:44;101059.34;;;8.46;52.12
28630;BME280;15817;42.130;24.762;2023-02-14T09:44:02;101059.75;;;8.66;51.24
28630;BME280;15817;42.130;24.762;2023-02-14T09:46:30;101058.69;;;8.58;51.38
28630;BME280;15817;42.130;24.762;2023-02-14T09:49:04;101060.91;;;8.79;51.01
28630;BME280;15817;42.130;24.762;2023-02-14T09:51:33;101060.19;;;8.86;50.92
28630;BME280;15817;42.130;24.762;2023-02-14T09:54:05;101054.03;;;8.90;50.83
28630;BME280;15817;42.130;24.762;2023-02-14T09:57:00;101027.50;;;8.90;50.63
28630;BME280;15817;42.130;24.762;2023-02-14T10:13:26;101028.25;;;9.28;49.70
28630;BME280;15817;42.130;24.762;2023-02-14T10:16:30;101023.78;;;9.27;49.50
28630;BME280;15817;42.130;24.762;2023-02-14T10:19:07;101017.66;;;9.29;49.49
28630;BME280;15817;42.130;24.762;2023-02-14T10:21:41;101006.25;;;9.36;48.84
28630;BME280;15817;42.130;24.762;2023-02-14T10:24:22;101001.94;;;9.41;48.54
28630;BME280;15817;42.130;24.762;2023-02-14T10:26:52;100992.09;;;9.36;49.78
28630;BME280;15817;42.130;24.762;2023-02-14T10:29:22;101013.56;;;9.50;49.70
28630;BME280;15817;42.130;24.762;2023-02-14T10:34:37;101004.13;;;9.67;49.12
28630;BME280;15817;42.130;24.762;2023-02-14T10:46:11;100978.66;;;9.81;48.69
28630;BME280;15817;42.130;24.762;2023-02-14T10:48:59;100984.84;;;9.78;48.67
28630;BME280;15817;42.130;24.762;2023-02-14T10:51:34;100975.19;;;9.87;48.89
28630;BME280;15817;42.130;24.762;2023-02-14T10:54:39;100960.81;;;9.72;49.35
28630;BME280;15817;42.130;24.762;2023-02-14T10:57:36;100977.78;;;9.82;49.07
28630;BME280;15817;42.130;24.762;2023-02-14T11:06:16;100960.25;;;9.95;48.29
28630;BME280;15817;42.130;24.762;2023-02-14T11:08:44;100949.59;;;9.93;47.68
28630;BME280;15817;42.130;24.762;2023-02-14T11:13:39;100948.72;;;9.94;46.89
28630;BME280;15817;42.130;24.762;2023-02-14T11:16:11;100945.16;;;9.91;47.67
28630;BME280;15817;42.130;24.762;2023-02-14T11:18:39;100947.84;;;9.95;47.72
28630;BME280;15817;42.130;24.762;2023-02-14T11:21:15;100941.69;;;9.98;47.79
28630;BME280;15817;42.130;24.762;2023-02-14T11:24:36;100954.31;;;10.12;46.78
28630;BME280;15817;42.130;24.762;2023-02-14T11:27:22;100932.06;;;10.07;47.75
28630;BME280;15817;42.130;24.762;2023-02-14T11:29:52;100938.34;;;10.11;47.95
28630;BME280;15817;42.130;24.762;2023-02-14T11:32:24;100944.59;;;10.16;48.06
28630;BME280;15817;42.130;24.762;2023-02-14T11:35:03;100933.09;;;10.17;48.55
28630;BME280;15817;42.130;24.762;2023-02-14T11:38:00;100939.28;;;10.14;48.76
28630;BME280;15817;42.130;24.762;2023-02-14T11:40:31;100936.56;;;10.11;48.66
28630;BME280;15817;42.130;24.762;2023-02-14T11:45:39;100923.00;;;9.90;48.97
28630;BME280;15817;42.130;24.762;2023-02-14T11:51:00;100916.91;;;9.99;49.10
28630;BME280;15817;42.130;24.762;2023-02-14T11:56:09;100914.31;;;10.02;49.21
28630;BME280;15817;42.130;24.762;2023-02-14T11:58:44;100903.66;;;10.02;49.56
28630;BME280;15817;42.130;24.762;2023-02-14T12:01:30;100896.59;;;10.05;49.77
28630;BME280;15817;42.130;24.762;2023-02-14T12:04:21;100905.56;;;10.12;49.07
28630;BME280;15817;42.130;24.762;2023-02-14T12:06:47;100903.69;;;10.06;48.76
28630;BME280;15817;42.130;24.762;2023-02-14T12:11:56;100894.94;;;10.12;48.88
28630;BME280;15817;42.130;24.762;2023-02-14T12:14:24;100896.69;;;10.11;48.65
28630;BME280;15817;42.130;24.762;2023-02-14T12:17:29;100886.88;;;10.06;48.71
28630;BME280;15817;42.130;24.762;2023-02-14T12:20:13;100887.75;;;10.03;48.61
28630;BME280;15817;42.130;24.762;2023-02-14T12:22:57;100881.50;;;10.00;48.48
28630;BME280;15817;42.130;24.762;2023-02-14T12:29:00;100899.97;;;9.92;48.39
28630;BME280;15817;42.130;24.762;2023-02-14T12:31:33;100889.34;;;9.91;48.26
28630;BME280;15817;42.130;24.762;2023-02-14T12:34:02;100892.03;;;9.94;48.23
28630;BME280;15817;42.130;24.762;2023-02-14T12:56:02;100872.19;;;10.34;48.83
28630;BME280;15817;42.130;24.762;2023-02-14T13:29:37;100881.38;;;9.91;48.91
28630;BME280;15817;42.130;24.762;2023-02-14T13:32:23;100873.25;;;9.80;49.40
28630;BME280;15817;42.130;24.762;2023-02-14T13:35:27;100890.09;;;9.82;49.07
28630;BME280;15817;42.130;24.762;2023-02-14T13:38:02;100881.25;;;9.80;49.36
28630;BME280;15817;42.130;24.762;2023-02-14T13:40:51;100886.50;;;9.77;49.77
28630;BME280;15817;42.130;24.762;2023-02-14T13:46:13;100880.91;;;9.59;50.13
28630;BME280;15817;42.130;24.762;2023-02-14T13:49:36;100886.22;;;9.56;50.73
28630;BME280;15817;42.130;24.762;2023-02-14T13:52:04;100890.69;;;9.61;50.80
28630;BME280;15817;42.130;24.762;2023-02-14T13:54:46;100888.88;;;9.59;50.78
28630;BME280;15817;42.130;24.762;2023-02-14T13:57:31;100913.66;;;9.56;50.85
28630;BME280;15817;42.130;24.762;2023-02-14T14:02:55;100894.84;;;9.42;51.41
28630;BME280;15817;42.130;24.762;2023-02-14T14:14:09;100924.75;;;9.31;51.41
28630;BME280;15817;42.130;24.762;2023-02-14T14:20:59;100924.69;;;9.26;51.54
28630;BME280;15817;42.130;24.762;2023-02-14T14:27:10;100919.28;;;9.20;51.63
28630;BME280;15817;42.130;24.762;2023-02-14T14:30:33;100920.13;;;9.18;50.98
28630;BME280;15817;42.130;24.762;2023-02-14T14:36:40;100928.03;;;9.15;51.30
28630;BME280;15817;42.130;24.762;2023-02-14T14:39:09;100923.41;;;9.03;51.87
28630;BME280;15817;42.130;24.762;2023-02-14T14:41:43;100918.88;;;8.96;51.55
28630;BME280;15817;42.130;24.762;2023-02-14T14:44:21;100924.03;;;8.90;51.66
28630;BME280;15817;42.130;24.762;2023-02-14T14:47:29;100928.38;;;8.83;51.95
28630;BME280;15817;42.130;24.762;2023-02-14T14:50:03;100917.66;;;8.79;51.93
28630;BME280;15817;42.130;24.762;2023-02-14T14:52:59;100913.22;;;8.78;51.93
28630;BME280;15817;42.130;24.762;2023-02-14T14:55:37;100924.66;;;8.74;52.39
28630;BME280;15817;42.130;24.762;2023-02-14T14:58:33;100916.63;;;8.70;52.82
28630;BME280;15817;42.130;24.762;2023-02-14T15:01:10;100928.94;;;8.67;53.01
28630;BME280;15817;42.130;24.762;2023-02-14T15:06:50;100929.75;;;8.63;53.79
28630;BME280;15817;42.130;24.762;2023-02-14T15:09:37;100942.13;;;8.62;53.90
28630;BME280;15817;42.130;24.762;2023-02-14T15:12:08;100931.34;;;8.55;54.24
28630;BME280;15817;42.130;24.762;2023-02-14T15:15:04;100935.56;;;8.44;54.20
28630;BME280;15817;42.130;24.762;2023-02-14T15:17:39;100941.72;;;8.41;54.89
28630;BME280;15817;42.130;24.762;2023-02-14T15:20:25;100938.88;;;8.33;54.81
28630;BME280;15817;42.130;24.762;2023-02-14T15:23:30;100948.53;;;8.30;55.44
28630;BME280;15817;42.130;24.762;2023-02-14T15:26:02;100953.63;;;8.22;55.43
28630;BME280;15817;42.130;24.762;2023-02-14T15:28:38;100951.81;;;8.20;56.02
28630;BME280;15817;42.130;24.762;2023-02-14T15:31:45;100963.31;;;8.20;56.21
28630;BME280;15817;42.130;24.762;2023-02-14T15:34:23;100946.38;;;8.12;56.24
28630;BME280;15817;42.130;24.762;2023-02-14T15:37:01;100945.41;;;8.09;56.39
28630;BME280;15817;42.130;24.762;2023-02-14T15:39:59;100949.75;;;8.05;56.58
28630;BME280;15817;42.130;24.762;2023-02-14T15:42:33;100959.50;;;8.08;56.71
28630;BME280;15817;42.130;24.762;2023-02-14T15:48:02;100953.06;;;7.96;56.91
28630;BME280;15817;42.130;24.762;2023-02-14T15:51:24;100956.66;;;7.98;57.26
28630;BME280;15817;42.130;24.762;2023-02-14T15:53:54;100948.66;;;7.95;56.78
28630;BME280;15817;42.130;24.762;2023-02-14T15:56:45;100937.06;;;7.90;56.92
28630;BME280;15817;42.130;24.762;2023-02-14T15:59:24;100951.22;;;7.91;57.20
28630;BME280;15817;42.130;24.762;2023-02-14T16:02:37;100951.09;;;7.86;57.30
28630;BME280;15817;42.130;24.762;2023-02-14T16:08:54;100947.47;;;7.81;57.68
28630;BME280;15817;42.130;24.762;2023-02-14T16:11:36;100950.03;;;7.78;57.93
28630;BME280;15817;42.130;24.762;2023-02-14T16:15:17;100952.56;;;7.74;58.07
28630;BME280;15817;42.130;24.762;2023-02-14T16:21:26;100968.50;;;7.75;58.17
28630;BME280;15817;42.130;24.762;2023-02-14T16:26:51;100955.94;;;7.67;58.43
28630;BME280;15817;42.130;24.762;2023-02-14T16:29:44;100965.69;;;7.68;58.53
28630;BME280;15817;42.130;24.762;2023-02-14T16:32:36;100958.34;;;7.56;58.72
28630;BME280;15817;42.130;24.762;2023-02-14T16:38:00;100958.31;;;7.54;58.43
28630;BME280;15817;42.130;24.762;2023-02-14T16:40:35;100976.06;;;7.58;58.45
28630;BME280;15817;42.130;24.762;2023-02-14T16:43:14;100969.66;;;7.50;58.13
28630;BME280;15817;42.130;24.762;2023-02-14T16:45:52;100970.50;;;7.48;57.97